sensor_id;sensor_type;location;lat;lon;timestamp;P1;durP1;ratioP1;P2;durP2;ratioP2
11090;SDS011;5599;52.210;21.046;2023-11-21T00:00:16;21.73;;;16.37;;
11090;SDS011;5599;52.210;21.046;2023-11-21T00:02:46;22.70;;;16.53;;
11090;SDS011;5599;52.210;21.046;2023-11-21T00:05:15;21.33;;;17.00;;
11090;SDS011;5599;52.210;21.046;2023-11-21T00:07:44;23.80;;;17.40;;
11090;SDS011;5599;52.210;21.046;2023-11-21T00:10:15;23.90;;;17.00;;
11090;SDS011;5599;52.210;21.046;2023-11-21T00:12:44;23.77;;;17.70;;
11090;SDS011;5599;52.210;21.046;2023-11-21T00:15:15;20.00;;;16.60;;
11090;SDS011;5599;52.210;21.046;2023-11-21T00:17:45;21.37;;;17.10;;
11090;SDS011;5599;52.210;21.046;2023-11-21T00:20:15;26.63;;;21.30;;
11090;SDS011;5599;52.210;21.046;2023-11-21T00:22:44;31.13;;;22.27;;
11090;SDS011;5599;52.210;21.046;2023-11-21T00:25:15;34.33;;;23.77;;
11090;SDS011;5599;52.210;21.046;2023-11-21T00:27:44;40.17;;;25.90;;
11090;SDS011;5599;52.210;21.046;2023-11-21T00:30:14;37.60;;;27.60;;
11090;SDS011;5599;52.210;21.046;2023-11-21T00:32:43;35.50;;;24.43;;
11090;SDS011;5599;52.210;21.046;2023-11-21T00:35:12;31.93;;;21.33;;
11090;SDS011;5599;52.210;21.046;2023-11-21T00:37:42;27.83;;;18.83;;
11090;SDS011;5599;52.210;21.046;2023-11-21T00:40:12;29.83;;;20.30;;
11090;SDS011;5599;52.210;21.046;2023-11-21T00:42:44;31.83;;;21.47;;
11090;SDS011;5599;52.210;21.046;2023-11-21T00:45:13;32.87;;;23.60;;
11090;SDS011;5599;52.210;21.046;2023-11-21T00:47:42;34.63;;;23.57;;
11090;SDS011;5599;52.210;21.046;2023-11-21T00:50:12;39.23;;;24.73;;
11090;SDS011;5599;52.210;21.046;2023-11-21T00:52:41;25.10;;;19.90;;
11090;SDS011;5599;52.210;21.046;2023-11-21T00:55:10;25.30;;;18.93;;
11090;SDS011;5599;52.210;21.046;2023-11-21T00:57:39;23.80;;;17.40;;
11090;SDS011;5599;52.210;21.046;2023-11-21T01:00:10;24.13;;;17.23;;
11090;SDS011;5599;52.210;21.046;2023-11-21T01:02:43;22.57;;;16.97;;
11090;SDS011;5599;52.210;21.046;2023-11-21T01:05:14;22.40;;;16.63;;
11090;SDS011;5599;52.210;21.046;2023-11-21T01:07:43;23.33;;;18.10;;
11090;SDS011;5599;52.210;21.046;2023-11-21T01:10:12;23.03;;;19.00;;
11090;SDS011;5599;52.210;21.046;2023-11-21T01:12:42;23.80;;;18.37;;
11090;SDS011;5599;52.210;21.046;2023-11-21T01:15:12;24.43;;;18.97;;
11090;SDS011;5599;52.210;21.046;2023-11-21T01:17:42;22.87;;;18.07;;
11090;SDS011;5599;52.210;21.046;2023-11-21T01:20:11;25.37;;;18.23;;
11090;SDS011;5599;52.210;21.046;2023-11-21T01:22:41;20.20;;;17.33;;
11090;SDS011;5599;52.210;21.046;2023-11-21T01:25:10;26.43;;;18.33;;
11090;SDS011;5599;52.210;21.046;2023-11-21T01:27:42;24.53;;;18.57;;
11090;SDS011;5599;52.210;21.046;2023-11-21T01:30:13;24.23;;;18.67;;
11090;SDS011;5599;52.210;21.046;2023-11-21T01:32:43;23.77;;;18.70;;
11090;SDS011;5599;52.210;21.046;2023-11-21T01:35:12;25.50;;;19.03;;
11090;SDS011;5599;52.210;21.046;2023-11-21T01:37:42;33.33;;;22.60;;
11090;SDS011;5599;52.210;21.046;2023-11-21T01:40:11;23.20;;;17.50;;
11090;SDS011;5599;52.210;21.046;2023-11-21T01:42:41;22.57;;;17.20;;
11090;SDS011;5599;52.210;21.046;2023-11-21T01:45:13;20.90;;;17.13;;
11090;SDS011;5599;52.210;21.046;2023-11-21T01:47:42;25.67;;;17.23;;
11090;SDS011;5599;52.210;21.046;2023-11-21T01:50:15;22.83;;;17.27;;
11090;SDS011;5599;52.210;21.046;2023-11-21T01:52:45;23.20;;;17.47;;
11090;SDS011;5599;52.210;21.046;2023-11-21T01:55:16;23.83;;;16.90;;
11090;SDS011;5599;52.210;21.046;2023-11-21T01:57:55;23.40;;;18.30;;
11090;SDS011;5599;52.210;21.046;2023-11-21T02:00:26;21.83;;;16.77;;
11090;SDS011;5599;52.210;21.046;2023-11-21T02:02:56;23.00;;;17.67;;
11090;SDS011;5599;52.210;21.046;2023-11-21T02:05:27;22.90;;;17.80;;
11090;SDS011;5599;52.210;21.046;2023-11-21T02:07:58;22.47;;;17.87;;
11090;SDS011;5599;52.210;21.046;2023-11-21T02:10:28;23.40;;;18.13;;
11090;SDS011;5599;52.210;21.046;2023-11-21T02:12:58;19.80;;;15.83;;
11090;SDS011;5599;52.210;21.046;2023-11-21T02:15:31;23.17;;;17.20;;
11090;SDS011;5599;52.210;21.046;2023-11-21T02:18:01;21.53;;;15.60;;
11090;SDS011;5599;52.210;21.046;2023-11-21T02:20:30;19.83;;;15.43;;
11090;SDS011;5599;52.210;21.046;2023-11-21T02:23:04;20.63;;;16.67;;
11090;SDS011;5599;52.210;21.046;2023-11-21T02:25:34;23.07;;;16.70;;
11090;SDS011;5599;52.210;21.046;2023-11-21T02:28:04;21.60;;;17.40;;
11090;SDS011;5599;52.210;21.046;2023-11-21T02:30:35;20.33;;;15.57;;
11090;SDS011;5599;52.210;21.046;2023-11-21T02:33:04;19.67;;;15.33;;
11090;SDS011;5599;52.210;21.046;2023-11-21T02:35:34;22.07;;;17.37;;
11090;SDS011;5599;52.210;21.046;2023-11-21T02:38:04;20.23;;;16.53;;
11090;SDS011;5599;52.210;21.046;2023-11-21T02:40:34;22.27;;;16.77;;
11090;SDS011;5599;52.210;21.046;2023-11-21T02:43:03;20.97;;;16.40;;
11090;SDS011;5599;52.210;21.046;2023-11-21T02:45:33;21.13;;;16.70;;
11090;SDS011;5599;52.210;21.046;2023-11-21T02:48:02;19.50;;;15.63;;
11090;SDS011;5599;52.210;21.046;2023-11-21T02:50:31;21.33;;;15.93;;
11090;SDS011;5599;52.210;21.046;2023-11-21T02:53:02;21.30;;;16.43;;
11090;SDS011;5599;52.210;21.046;2023-11-21T02:55:34;19.33;;;16.13;;
11090;SDS011;5599;52.210;21.046;2023-11-21T02:58:03;18.53;;;15.67;;
11090;SDS011;5599;52.210;21.046;2023-11-21T03:00:33;21.40;;;16.27;;
11090;SDS011;5599;52.210;21.046;2023-11-21T03:03:02;22.47;;;16.80;;
11090;SDS011;5599;52.210;21.046;2023-11-21T03:05:32;20.87;;;16.47;;
11090;SDS011;5599;52.210;21.046;2023-11-21T03:08:02;22.00;;;15.83;;
11090;SDS011;5599;52.210;21.046;2023-11-21T03:10:33;20.77;;;16.10;;
11090;SDS011;5599;52.210;21.046;2023-11-21T03:13:03;19.87;;;15.73;;
11090;SDS011;5599;52.210;21.046;2023-11-21T03:15:32;21.10;;;15.70;;
11090;SDS011;5599;52.210;21.046;2023-11-21T03:18:03;24.20;;;16.83;;
11090;SDS011;5599;52.210;21.046;2023-11-21T03:20:32;20.70;;;15.43;;
11090;SDS011;5599;52.210;21.046;2023-11-21T03:23:03;21.67;;;16.43;;
11090;SDS011;5599;52.210;21.046;2023-11-21T03:25:33;21.00;;;15.50;;
11090;SDS011;5599;52.210;21.046;2023-11-21T03:28:03;20.80;;;14.73;;
11090;SDS011;5599;52.210;21.046;2023-11-21T03:30:32;24.13;;;17.17;;
11090;SDS011;5599;52.210;21.046;2023-11-21T03:33:03;21.07;;;16.97;;
11090;SDS011;5599;52.210;21.046;2023-11-21T03:35:32;21.17;;;16.90;;
11090;SDS011;5599;52.210;21.046;2023-11-21T03:38:03;22.80;;;16.83;;
11090;SDS011;5599;52.210;21.046;2023-11-21T03:40:33;20.73;;;16.67;;
11090;SDS011;5599;52.210;21.046;2023-11-21T03:43:02;23.57;;;18.50;;
11090;SDS011;5599;52.210;21.046;2023-11-21T03:45:32;19.77;;;14.93;;
11090;SDS011;5599;52.210;21.046;2023-11-21T03:48:01;22.53;;;17.30;;
11090;SDS011;5599;52.210;21.046;2023-11-21T03:50:30;21.17;;;16.73;;
11090;SDS011;5599;52.210;21.046;2023-11-21T03:53:00;21.50;;;16.30;;
11090;SDS011;5599;52.210;21.046;2023-11-21T03:55:30;19.87;;;16.13;;
11090;SDS011;5599;52.210;21.046;2023-11-21T03:58:01;24.07;;;18.13;;
11090;SDS011;5599;52.210;21.046;2023-11-21T04:00:30;21.53;;;17.00;;
11090;SDS011;5599;52.210;21.046;2023-11-21T04:02:59;20.70;;;16.47;;
11090;SDS011;5599;52.210;21.046;2023-11-21T04:05:30;20.60;;;14.90;;
11090;SDS011;5599;52.210;21.046;2023-11-21T04:07:59;19.30;;;14.93;;
11090;SDS011;5599;52.210;21.046;2023-11-21T04:10:28;18.97;;;14.87;;
11090;SDS011;5599;52.210;21.046;2023-11-21T04:12:58;18.63;;;14.77;;
11090;SDS011;5599;52.210;21.046;2023-11-21T04:15:28;17.90;;;14.73;;
11090;SDS011;5599;52.210;21.046;2023-11-21T04:17:58;22.10;;;14.87;;
11090;SDS011;5599;52.210;21.046;2023-11-21T04:20:27;17.67;;;14.10;;
11090;SDS011;5599;52.210;21.046;2023-11-21T04:22:56;19.67;;;15.50;;
11090;SDS011;5599;52.210;21.046;2023-11-21T04:25:25;21.43;;;16.83;;
11090;SDS011;5599;52.210;21.046;2023-11-21T04:27:55;19.30;;;14.93;;
11090;SDS011;5599;52.210;21.046;2023-11-21T04:30:24;21.50;;;14.83;;
11090;SDS011;5599;52.210;21.046;2023-11-21T04:32:55;19.87;;;15.20;;
11090;SDS011;5599;52.210;21.046;2023-11-21T04:35:24;17.83;;;15.07;;
11090;SDS011;5599;52.210;21.046;2023-11-21T04:37:53;22.10;;;16.00;;
11090;SDS011;5599;52.210;21.046;2023-11-21T04:40:22;20.53;;;14.73;;
11090;SDS011;5599;52.210;21.046;2023-11-21T04:42:51;19.27;;;15.43;;
11090;SDS011;5599;52.210;21.046;2023-11-21T04:45:20;19.13;;;14.53;;
11090;SDS011;5599;52.210;21.046;2023-11-21T04:47:49;17.33;;;14.00;;
11090;SDS011;5599;52.210;21.046;2023-11-21T04:50:21;16.03;;;12.23;;
11090;SDS011;5599;52.210;21.046;2023-11-21T04:52:50;17.47;;;13.13;;
11090;SDS011;5599;52.210;21.046;2023-11-21T04:55:19;16.37;;;13.30;;
11090;SDS011;5599;52.210;21.046;2023-11-21T04:57:49;21.23;;;14.33;;
11090;SDS011;5599;52.210;21.046;2023-11-21T05:00:18;19.47;;;13.80;;
11090;SDS011;5599;52.210;21.046;2023-11-21T05:02:48;16.93;;;13.63;;
11090;SDS011;5599;52.210;21.046;2023-11-21T05:05:17;18.50;;;13.80;;
11090;SDS011;5599;52.210;21.046;2023-11-21T05:07:48;17.37;;;13.23;;
11090;SDS011;5599;52.210;21.046;2023-11-21T05:10:17;14.80;;;12.63;;
11090;SDS011;5599;52.210;21.046;2023-11-21T05:12:47;16.87;;;13.27;;
11090;SDS011;5599;52.210;21.046;2023-11-21T05:15:17;18.60;;;13.40;;
11090;SDS011;5599;52.210;21.046;2023-11-21T05:17:46;15.10;;;12.57;;
11090;SDS011;5599;52.210;21.046;2023-11-21T05:20:17;18.63;;;13.80;;
11090;SDS011;5599;52.210;21.046;2023-11-21T05:22:50;16.27;;;12.97;;
11090;SDS011;5599;52.210;21.046;2023-11-21T05:25:19;15.07;;;12.43;;
11090;SDS011;5599;52.210;21.046;2023-11-21T05:27:48;15.67;;;12.40;;
11090;SDS011;5599;52.210;21.046;2023-11-21T05:30:18;16.67;;;11.17;;
11090;SDS011;5599;52.210;21.046;2023-11-21T05:32:47;15.03;;;11.67;;
11090;SDS011;5599;52.210;21.046;2023-11-21T05:35:17;12.53;;;10.60;;
11090;SDS011;5599;52.210;21.046;2023-11-21T05:37:46;19.67;;;11.87;;
11090;SDS011;5599;52.210;21.046;2023-11-21T05:40:16;12.83;;;10.47;;
11090;SDS011;5599;52.210;21.046;2023-11-21T05:42:45;13.37;;;10.97;;
11090;SDS011;5599;52.210;21.046;2023-11-21T05:45:15;17.27;;;12.07;;
11090;SDS011;5599;52.210;21.046;2023-11-21T05:47:46;16.07;;;11.53;;
11090;SDS011;5599;52.210;21.046;2023-11-21T05:50:15;15.37;;;11.63;;
11090;SDS011;5599;52.210;21.046;2023-11-21T05:52:46;14.40;;;11.77;;
11090;SDS011;5599;52.210;21.046;2023-11-21T05:55:17;14.33;;;11.97;;
11090;SDS011;5599;52.210;21.046;2023-11-21T05:57:48;15.30;;;11.10;;
11090;SDS011;5599;52.210;21.046;2023-11-21T06:00:17;14.00;;;10.53;;
11090;SDS011;5599;52.210;21.046;2023-11-21T06:02:48;13.23;;;10.87;;
11090;SDS011;5599;52.210;21.046;2023-11-21T06:05:22;12.23;;;10.87;;
11090;SDS011;5599;52.210;21.046;2023-11-21T06:07:53;12.80;;;11.30;;
11090;SDS011;5599;52.210;21.046;2023-11-21T06:10:25;13.63;;;10.50;;
11090;SDS011;5599;52.210;21.046;2023-11-21T06:12:56;12.50;;;11.20;;
11090;SDS011;5599;52.210;21.046;2023-11-21T06:15:30;13.17;;;10.33;;
11090;SDS011;5599;52.210;21.046;2023-11-21T06:17:59;12.27;;;10.17;;
11090;SDS011;5599;52.210;21.046;2023-11-21T06:20:28;14.00;;;11.43;;
11090;SDS011;5599;52.210;21.046;2023-11-21T06:22:57;12.67;;;10.50;;
11090;SDS011;5599;52.210;21.046;2023-11-21T06:25:32;11.40;;;9.57;;
11090;SDS011;5599;52.210;21.046;2023-11-21T06:28:03;15.03;;;11.63;;
11090;SDS011;5599;52.210;21.046;2023-11-21T06:30:33;13.93;;;10.60;;
11090;SDS011;5599;52.210;21.046;2023-11-21T06:33:02;11.30;;;9.57;;
11090;SDS011;5599;52.210;21.046;2023-11-21T06:35:31;12.83;;;10.40;;
11090;SDS011;5599;52.210;21.046;2023-11-21T06:38:02;15.27;;;10.30;;
11090;SDS011;5599;52.210;21.046;2023-11-21T06:40:32;13.03;;;10.07;;
11090;SDS011;5599;52.210;21.046;2023-11-21T06:43:01;13.63;;;10.47;;
11090;SDS011;5599;52.210;21.046;2023-11-21T06:45:32;12.87;;;10.43;;
11090;SDS011;5599;52.210;21.046;2023-11-21T06:48:01;12.70;;;9.27;;
11090;SDS011;5599;52.210;21.046;2023-11-21T06:50:31;14.73;;;11.17;;
11090;SDS011;5599;52.210;21.046;2023-11-21T06:53:00;13.07;;;10.97;;
11090;SDS011;5599;52.210;21.046;2023-11-21T06:55:36;14.53;;;10.83;;
11090;SDS011;5599;52.210;21.046;2023-11-21T06:58:06;13.97;;;10.27;;
11090;SDS011;5599;52.210;21.046;2023-11-21T07:00:36;15.40;;;11.07;;
11090;SDS011;5599;52.210;21.046;2023-11-21T07:03:06;14.57;;;11.50;;
11090;SDS011;5599;52.210;21.046;2023-11-21T07:05:35;12.10;;;10.40;;
11090;SDS011;5599;52.210;21.046;2023-11-21T07:08:05;11.97;;;10.30;;
11090;SDS011;5599;52.210;21.046;2023-11-21T07:10:37;12.10;;;10.47;;
11090;SDS011;5599;52.210;21.046;2023-11-21T07:13:06;15.50;;;10.20;;
11090;SDS011;5599;52.210;21.046;2023-11-21T07:15:39;15.20;;;11.27;;
11090;SDS011;5599;52.210;21.046;2023-11-21T07:18:09;14.83;;;11.50;;
11090;SDS011;5599;52.210;21.046;2023-11-21T07:20:38;12.67;;;10.63;;
11090;SDS011;5599;52.210;21.046;2023-11-21T07:23:08;15.23;;;11.60;;
11090;SDS011;5599;52.210;21.046;2023-11-21T07:25:39;19.93;;;11.53;;
11090;SDS011;5599;52.210;21.046;2023-11-21T07:28:09;15.97;;;12.23;;
11090;SDS011;5599;52.210;21.046;2023-11-21T07:30:38;16.80;;;12.03;;
11090;SDS011;5599;52.210;21.046;2023-11-21T07:33:07;17.33;;;12.10;;
11090;SDS011;5599;52.210;21.046;2023-11-21T07:35:37;15.00;;;11.60;;
11090;SDS011;5599;52.210;21.046;2023-11-21T07:38:06;16.77;;;12.70;;
11090;SDS011;5599;52.210;21.046;2023-11-21T07:40:38;16.73;;;12.23;;
11090;SDS011;5599;52.210;21.046;2023-11-21T07:43:08;16.80;;;12.63;;
11090;SDS011;5599;52.210;21.046;2023-11-21T07:45:37;15.23;;;12.27;;
11090;SDS011;5599;52.210;21.046;2023-11-21T07:48:11;16.40;;;12.17;;
11090;SDS011;5599;52.210;21.046;2023-11-21T07:50:41;18.13;;;12.10;;
11090;SDS011;5599;52.210;21.046;2023-11-21T07:53:10;16.57;;;11.77;;
11090;SDS011;5599;52.210;21.046;2023-11-21T07:55:43;15.17;;;11.80;;
11090;SDS011;5599;52.210;21.046;2023-11-21T07:58:14;14.53;;;11.30;;
11090;SDS011;5599;52.210;21.046;2023-11-21T08:00:44;17.50;;;11.77;;
11090;SDS011;5599;52.210;21.046;2023-11-21T08:03:14;16.87;;;12.30;;
11090;SDS011;5599;52.210;21.046;2023-11-21T08:05:44;15.57;;;11.87;;
11090;SDS011;5599;52.210;21.046;2023-11-21T08:08:13;14.97;;;11.27;;
11090;SDS011;5599;52.210;21.046;2023-11-21T08:10:47;15.33;;;12.20;;
11090;SDS011;5599;52.210;21.046;2023-11-21T08:13:23;16.83;;;11.33;;
11090;SDS011;5599;52.210;21.046;2023-11-21T08:15:54;15.17;;;11.20;;
11090;SDS011;5599;52.210;21.046;2023-11-21T08:18:25;19.50;;;12.37;;
11090;SDS011;5599;52.210;21.046;2023-11-21T08:20:55;16.27;;;11.07;;
11090;SDS011;5599;52.210;21.046;2023-11-21T08:23:24;15.10;;;11.33;;
11090;SDS011;5599;52.210;21.046;2023-11-21T08:25:55;19.33;;;11.70;;
11090;SDS011;5599;52.210;21.046;2023-11-21T08:28:24;14.67;;;11.93;;
11090;SDS011;5599;52.210;21.046;2023-11-21T08:30:54;18.17;;;13.80;;
11090;SDS011;5599;52.210;21.046;2023-11-21T08:33:23;16.30;;;12.50;;
11090;SDS011;5599;52.210;21.046;2023-11-21T08:35:52;15.97;;;11.80;;
11090;SDS011;5599;52.210;21.046;2023-11-21T08:38:22;17.03;;;11.23;;
11090;SDS011;5599;52.210;21.046;2023-11-21T08:40:51;17.60;;;11.97;;
11090;SDS011;5599;52.210;21.046;2023-11-21T08:43:22;17.07;;;11.40;;
11090;SDS011;5599;52.210;21.046;2023-11-21T08:45:54;17.77;;;11.10;;
11090;SDS011;5599;52.210;21.046;2023-11-21T08:48:24;13.97;;;10.53;;
11090;SDS011;5599;52.210;21.046;2023-11-21T08:50:55;18.43;;;11.73;;
11090;SDS011;5599;52.210;21.046;2023-11-21T08:53:24;15.37;;;12.17;;
11090;SDS011;5599;52.210;21.046;2023-11-21T08:55:54;12.47;;;10.63;;
11090;SDS011;5599;52.210;21.046;2023-11-21T08:58:25;15.90;;;11.93;;
11090;SDS011;5599;52.210;21.046;2023-11-21T09:00:54;16.93;;;11.63;;
11090;SDS011;5599;52.210;21.046;2023-11-21T09:03:23;17.17;;;12.70;;
11090;SDS011;5599;52.210;21.046;2023-11-21T09:05:52;16.33;;;11.53;;
11090;SDS011;5599;52.210;21.046;2023-11-21T09:08:22;13.63;;;11.13;;
11090;SDS011;5599;52.210;21.046;2023-11-21T09:10:51;16.17;;;12.20;;
11090;SDS011;5599;52.210;21.046;2023-11-21T09:13:20;12.70;;;11.20;;
11090;SDS011;5599;52.210;21.046;2023-11-21T09:15:54;13.70;;;11.50;;
11090;SDS011;5599;52.210;21.046;2023-11-21T09:18:24;14.00;;;11.70;;
11090;SDS011;5599;52.210;21.046;2023-11-21T09:20:54;16.03;;;12.73;;
11090;SDS011;5599;52.210;21.046;2023-11-21T09:23:23;15.63;;;12.27;;
11090;SDS011;5599;52.210;21.046;2023-11-21T09:25:53;14.20;;;11.33;;
11090;SDS011;5599;52.210;21.046;2023-11-21T09:28:24;15.63;;;12.40;;
11090;SDS011;5599;52.210;21.046;2023-11-21T09:30:55;18.90;;;12.87;;
11090;SDS011;5599;52.210;21.046;2023-11-21T09:33:25;14.33;;;12.07;;
11090;SDS011;5599;52.210;21.046;2023-11-21T09:35:54;17.73;;;12.50;;
11090;SDS011;5599;52.210;21.046;2023-11-21T09:38:23;18.77;;;13.27;;
11090;SDS011;5599;52.210;21.046;2023-11-21T09:40:53;14.40;;;11.60;;
11090;SDS011;5599;52.210;21.046;2023-11-21T09:43:25;15.37;;;11.77;;
11090;SDS011;5599;52.210;21.046;2023-11-21T09:46:00;16.77;;;11.63;;
11090;SDS011;5599;52.210;21.046;2023-11-21T09:48:38;14.47;;;11.57;;
11090;SDS011;5599;52.210;21.046;2023-11-21T09:51:08;13.40;;;11.70;;
11090;SDS011;5599;52.210;21.046;2023-11-21T09:53:39;15.93;;;12.00;;
11090;SDS011;5599;52.210;21.046;2023-11-21T09:56:13;14.70;;;12.00;;
11090;SDS011;5599;52.210;21.046;2023-11-21T09:58:46;15.50;;;12.43;;
11090;SDS011;5599;52.210;21.046;2023-11-21T10:01:18;16.93;;;11.53;;
11090;SDS011;5599;52.210;21.046;2023-11-21T10:03:50;12.00;;;9.93;;
11090;SDS011;5599;52.210;21.046;2023-11-21T10:06:19;13.63;;;11.03;;
11090;SDS011;5599;52.210;21.046;2023-11-21T10:08:49;14.03;;;10.97;;
11090;SDS011;5599;52.210;21.046;2023-11-21T10:11:22;13.10;;;10.87;;
11090;SDS011;5599;52.210;21.046;2023-11-21T10:13:54;15.37;;;11.20;;
11090;SDS011;5599;52.210;21.046;2023-11-21T10:16:27;14.00;;;11.07;;
11090;SDS011;5599;52.210;21.046;2023-11-21T10:18:57;14.93;;;11.10;;
11090;SDS011;5599;52.210;21.046;2023-11-21T10:21:37;12.77;;;10.67;;
11090;SDS011;5599;52.210;21.046;2023-11-21T10:24:07;14.73;;;10.73;;
11090;SDS011;5599;52.210;21.046;2023-11-21T10:26:36;14.70;;;11.13;;
11090;SDS011;5599;52.210;21.046;2023-11-21T10:29:19;16.27;;;11.17;;
11090;SDS011;5599;52.210;21.046;2023-11-21T10:31:50;19.03;;;12.30;;
11090;SDS011;5599;52.210;21.046;2023-11-21T10:34:22;14.43;;;11.27;;
11090;SDS011;5599;52.210;21.046;2023-11-21T10:36:51;16.63;;;11.33;;
11090;SDS011;5599;52.210;21.046;2023-11-21T10:39:23;13.70;;;10.40;;
11090;SDS011;5599;52.210;21.046;2023-11-21T10:41:55;16.80;;;11.13;;
11090;SDS011;5599;52.210;21.046;2023-11-21T10:44:24;13.93;;;10.77;;
11090;SDS011;5599;52.210;21.046;2023-11-21T10:46:55;16.77;;;11.50;;
11090;SDS011;5599;52.210;21.046;2023-11-21T10:49:26;17.90;;;11.07;;
11090;SDS011;5599;52.210;21.046;2023-11-21T10:51:56;15.40;;;10.80;;
11090;SDS011;5599;52.210;21.046;2023-11-21T10:54:26;13.43;;;11.50;;
11090;SDS011;5599;52.210;21.046;2023-11-21T10:56:56;16.07;;;11.83;;
11090;SDS011;5599;52.210;21.046;2023-11-21T10:59:28;16.83;;;13.23;;
11090;SDS011;5599;52.210;21.046;2023-11-21T11:02:01;15.10;;;11.80;;
11090;SDS011;5599;52.210;21.046;2023-11-21T11:04:38;16.50;;;11.90;;
11090;SDS011;5599;52.210;21.046;2023-11-21T11:07:08;15.60;;;12.67;;
11090;SDS011;5599;52.210;21.046;2023-11-21T11:09:42;19.23;;;14.13;;
11090;SDS011;5599;52.210;21.046;2023-11-21T11:12:12;17.43;;;14.23;;
11090;SDS011;5599;52.210;21.046;2023-11-21T11:14:44;17.23;;;13.83;;
11090;SDS011;5599;52.210;21.046;2023-11-21T11:17:16;15.93;;;11.43;;
11090;SDS011;5599;52.210;21.046;2023-11-21T11:19:47;17.13;;;12.47;;
11090;SDS011;5599;52.210;21.046;2023-11-21T11:22:21;17.67;;;13.20;;
11090;SDS011;5599;52.210;21.046;2023-11-21T11:25:03;21.27;;;15.37;;
11090;SDS011;5599;52.210;21.046;2023-11-21T11:27:48;15.53;;;11.70;;
11090;SDS011;5599;52.210;21.046;2023-11-21T11:30:27;19.27;;;13.07;;
11090;SDS011;5599;52.210;21.046;2023-11-21T11:33:12;16.97;;;11.63;;
11090;SDS011;5599;52.210;21.046;2023-11-21T11:35:55;14.43;;;12.17;;
11090;SDS011;5599;52.210;21.046;2023-11-21T11:38:30;16.33;;;12.13;;
11090;SDS011;5599;52.210;21.046;2023-11-21T11:41:03;16.83;;;12.50;;
11090;SDS011;5599;52.210;21.046;2023-11-21T11:43:34;16.10;;;13.60;;
11090;SDS011;5599;52.210;21.046;2023-11-21T11:46:11;17.37;;;12.97;;
11090;SDS011;5599;52.210;21.046;2023-11-21T11:48:43;17.53;;;12.83;;
11090;SDS011;5599;52.210;21.046;2023-11-21T11:51:13;17.57;;;12.23;;
11090;SDS011;5599;52.210;21.046;2023-11-21T11:53:46;16.60;;;12.63;;
11090;SDS011;5599;52.210;21.046;2023-11-21T11:56:20;15.37;;;13.30;;
11090;SDS011;5599;52.210;21.046;2023-11-21T11:58:55;18.77;;;12.03;;
11090;SDS011;5599;52.210;21.046;2023-11-21T12:01:26;17.87;;;13.07;;
11090;SDS011;5599;52.210;21.046;2023-11-21T12:07:02;19.00;;;13.17;;
11090;SDS011;5599;52.210;21.046;2023-11-21T12:09:32;15.60;;;12.43;;
11090;SDS011;5599;52.210;21.046;2023-11-21T12:12:03;15.20;;;12.53;;
11090;SDS011;5599;52.210;21.046;2023-11-21T12:14:33;18.17;;;12.03;;
11090;SDS011;5599;52.210;21.046;2023-11-21T12:17:04;17.33;;;12.77;;
11090;SDS011;5599;52.210;21.046;2023-11-21T12:19:35;17.13;;;13.33;;
11090;SDS011;5599;52.210;21.046;2023-11-21T12:22:05;17.63;;;13.40;;
11090;SDS011;5599;52.210;21.046;2023-11-21T12:24:35;15.17;;;11.83;;
11090;SDS011;5599;52.210;21.046;2023-11-21T12:27:04;15.83;;;13.00;;
11090;SDS011;5599;52.210;21.046;2023-11-21T12:29:34;15.23;;;12.10;;
11090;SDS011;5599;52.210;21.046;2023-11-21T12:32:05;16.93;;;13.07;;
11090;SDS011;5599;52.210;21.046;2023-11-21T12:34:35;16.17;;;12.93;;
11090;SDS011;5599;52.210;21.046;2023-11-21T12:37:06;16.97;;;13.80;;
11090;SDS011;5599;52.210;21.046;2023-11-21T12:39:35;23.77;;;15.33;;
11090;SDS011;5599;52.210;21.046;2023-11-21T12:42:04;20.33;;;13.47;;
11090;SDS011;5599;52.210;21.046;2023-11-21T12:44:34;17.20;;;13.37;;
11090;SDS011;5599;52.210;21.046;2023-11-21T12:47:05;17.30;;;13.53;;
11090;SDS011;5599;52.210;21.046;2023-11-21T12:49:36;17.63;;;13.17;;
11090;SDS011;5599;52.210;21.046;2023-11-21T12:52:05;17.43;;;13.13;;
11090;SDS011;5599;52.210;21.046;2023-11-21T12:54:35;19.60;;;14.70;;
11090;SDS011;5599;52.210;21.046;2023-11-21T12:57:04;15.67;;;12.30;;
11090;SDS011;5599;52.210;21.046;2023-11-21T12:59:35;16.60;;;12.67;;
11090;SDS011;5599;52.210;21.046;2023-11-21T13:02:07;20.90;;;14.07;;
11090;SDS011;5599;52.210;21.046;2023-11-21T13:04:38;20.00;;;13.60;;
11090;SDS011;5599;52.210;21.046;2023-11-21T13:07:07;17.53;;;12.27;;
11090;SDS011;5599;52.210;21.046;2023-11-21T13:09:41;16.83;;;12.90;;
11090;SDS011;5599;52.210;21.046;2023-11-21T13:12:11;17.77;;;14.17;;
11090;SDS011;5599;52.210;21.046;2023-11-21T13:14:40;14.40;;;12.50;;
11090;SDS011;5599;52.210;21.046;2023-11-21T13:17:10;22.20;;;13.97;;
11090;SDS011;5599;52.210;21.046;2023-11-21T13:19:41;14.40;;;12.77;;
11090;SDS011;5599;52.210;21.046;2023-11-21T13:22:10;17.83;;;13.37;;
11090;SDS011;5599;52.210;21.046;2023-11-21T13:24:40;17.20;;;12.63;;
11090;SDS011;5599;52.210;21.046;2023-11-21T13:27:09;17.23;;;13.67;;
11090;SDS011;5599;52.210;21.046;2023-11-21T13:29:38;16.93;;;12.63;;
11090;SDS011;5599;52.210;21.046;2023-11-21T13:32:09;17.20;;;12.50;;
11090;SDS011;5599;52.210;21.046;2023-11-21T13:34:40;17.07;;;12.53;;
11090;SDS011;5599;52.210;21.046;2023-11-21T13:37:14;18.00;;;12.97;;
11090;SDS011;5599;52.210;21.046;2023-11-21T13:39:43;17.67;;;13.20;;
11090;SDS011;5599;52.210;21.046;2023-11-21T13:42:18;17.60;;;13.37;;
11090;SDS011;5599;52.210;21.046;2023-11-21T13:44:55;17.63;;;13.53;;
11090;SDS011;5599;52.210;21.046;2023-11-21T13:47:25;16.87;;;13.07;;
11090;SDS011;5599;52.210;21.046;2023-11-21T13:49:58;15.13;;;12.13;;
11090;SDS011;5599;52.210;21.046;2023-11-21T13:52:28;17.60;;;12.57;;
11090;SDS011;5599;52.210;21.046;2023-11-21T13:55:00;15.57;;;12.47;;
11090;SDS011;5599;52.210;21.046;2023-11-21T13:57:33;17.07;;;12.97;;
11090;SDS011;5599;52.210;21.046;2023-11-21T14:00:03;19.73;;;13.53;;
11090;SDS011;5599;52.210;21.046;2023-11-21T14:02:38;20.93;;;14.80;;
11090;SDS011;5599;52.210;21.046;2023-11-21T14:05:12;18.97;;;14.53;;
11090;SDS011;5599;52.210;21.046;2023-11-21T14:07:48;20.63;;;15.23;;
11090;SDS011;5599;52.210;21.046;2023-11-21T14:10:18;17.63;;;12.47;;
11090;SDS011;5599;52.210;21.046;2023-11-21T14:12:50;18.77;;;14.33;;
11090;SDS011;5599;52.210;21.046;2023-11-21T14:15:19;21.37;;;14.70;;
11090;SDS011;5599;52.210;21.046;2023-11-21T14:17:49;18.63;;;14.77;;
11090;SDS011;5599;52.210;21.046;2023-11-21T14:20:20;18.10;;;12.93;;
11090;SDS011;5599;52.210;21.046;2023-11-21T14:22:49;22.07;;;15.37;;
11090;SDS011;5599;52.210;21.046;2023-11-21T14:25:19;22.40;;;17.00;;
11090;SDS011;5599;52.210;21.046;2023-11-21T14:27:50;20.77;;;14.67;;
11090;SDS011;5599;52.210;21.046;2023-11-21T14:30:19;19.90;;;15.23;;
11090;SDS011;5599;52.210;21.046;2023-11-21T14:32:50;21.50;;;13.93;;
11090;SDS011;5599;52.210;21.046;2023-11-21T14:35:21;20.43;;;16.07;;
11090;SDS011;5599;52.210;21.046;2023-11-21T14:37:50;23.67;;;16.83;;
11090;SDS011;5599;52.210;21.046;2023-11-21T14:40:20;21.90;;;17.57;;
11090;SDS011;5599;52.210;21.046;2023-11-21T14:42:51;24.57;;;18.70;;